sensor_id;sensor_type;location;lat;lon;timestamp;temperature;humidity
56240;DHT22;42154;51.992;5.896;2023-12-29T00:00:35;11.30;99.90
56240;DHT22;42154;51.992;5.896;2023-12-29T00:03:01;11.30;99.90
56240;DHT22;42154;51.992;5.896;2023-12-29T00:05:26;11.30;99.90
56240;DHT22;42154;51.992;5.896;2023-12-29T00:07:53;11.30;99.90
56240;DHT22;42154;51.992;5.896;2023-12-29T00:10:18;11.30;99.90
56240;DHT22;42154;51.992;5.896;2023-12-29T00:12:44;11.30;99.90
56240;DHT22;42154;51.992;5.896;2023-12-29T00:15:10;11.40;99.90
56240;DHT22;42154;51.992;5.896;2023-12-29T00:17:36;11.30;99.90
56240;DHT22;42154;51.992;5.896;2023-12-29T00:20:07;11.40;99.90
56240;DHT22;42154;51.992;5.896;2023-12-29T00:22:36;11.40;99.90
56240;DHT22;42154;51.992;5.896;2023-12-29T00:25:01;11.40;99.90
56240;DHT22;42154;51.992;5.896;2023-12-29T00:27:28;11.40;99.90
56240;DHT22;42154;51.992;5.896;2023-12-29T00:29:54;11.40;99.90
56240;DHT22;42154;51.992;5.896;2023-12-29T00:32:20;11.40;99.90
56240;DHT22;42154;51.992;5.896;2023-12-29T00:34:46;11.30;99.90
56240;DHT22;42154;51.992;5.896;2023-12-29T00:37:12;11.30;99.90
56240;DHT22;42154;51.992;5.896;2023-12-29T00:39:37;11.20;99.90
56240;DHT22;42154;51.992;5.896;2023-12-29T00:42:07;11.20;99.90
56240;DHT22;42154;51.992;5.896;2023-12-29T00:44:33;11.20;99.90
56240;DHT22;42154;51.992;5.896;2023-12-29T00:46:59;11.20;99.90
56240;DHT22;42154;51.992;5.896;2023-12-29T00:49:26;11.10;99.90
56240;DHT22;42154;51.992;5.896;2023-12-29T00:51:53;11.20;99.90
56240;DHT22;42154;51.992;5.896;2023-12-29T00:54:19;11.10;99.90
56240;DHT22;42154;51.992;5.896;2023-12-29T00:56:51;11.10;99.90
56240;DHT22;42154;51.992;5.896;2023-12-29T00:59:20;11.20;99.90
56240;DHT22;42154;51.992;5.896;2023-12-29T01:01:46;11.20;99.90
56240;DHT22;42154;51.992;5.896;2023-12-29T01:04:12;11.20;99.90
56240;DHT22;42154;51.992;5.896;2023-12-29T01:06:37;11.20;99.90
56240;DHT22;42154;51.992;5.896;2023-12-29T01:09:03;11.20;99.90
56240;DHT22;42154;51.992;5.896;2023-12-29T01:11:29;11.20;99.90
56240;DHT22;42154;51.992;5.896;2023-12-29T01:13:55;11.20;99.90
56240;DHT22;42154;51.992;5.896;2023-12-29T01:16:21;11.20;99.90
56240;DHT22;42154;51.992;5.896;2023-12-29T01:18:47;11.30;99.90
56240;DHT22;42154;51.992;5.896;2023-12-29T01:21:13;11.30;99.90
56240;DHT22;42154;51.992;5.896;2023-12-29T01:23:38;11.20;99.90
56240;DHT22;42154;51.992;5.896;2023-12-29T01:26:04;11.20;99.90
56240;DHT22;42154;51.992;5.896;2023-12-29T01:28:30;11.20;99.90
56240;DHT22;42154;51.992;5.896;2023-12-29T01:30:55;11.20;99.90
56240;DHT22;42154;51.992;5.896;2023-12-29T01:33:21;11.20;99.90
56240;DHT22;42154;51.992;5.896;2023-12-29T01:35:47;11.20;99.90
56240;DHT22;42154;51.992;5.896;2023-12-29T01:38:12;11.20;99.90
56240;DHT22;42154;51.992;5.896;2023-12-29T01:40:44;11.20;99.90
56240;DHT22;42154;51.992;5.896;2023-12-29T01:43:10;11.20;99.90
56240;DHT22;42154;51.992;5.896;2023-12-29T01:45:35;11.20;99.90
56240;DHT22;42154;51.992;5.896;2023-12-29T01:48:02;11.10;99.90
56240;DHT22;42154;51.992;5.896;2023-12-29T01:50:29;11.10;99.90
56240;DHT22;42154;51.992;5.896;2023-12-29T01:52:56;11.10;99.90
56240;DHT22;42154;51.992;5.896;2023-12-29T01:55:23;11.20;99.90
56240;DHT22;42154;51.992;5.896;2023-12-29T01:57:51;11.10;99.90
56240;DHT22;42154;51.992;5.896;2023-12-29T02:00:17;11.10;99.90
56240;DHT22;42154;51.992;5.896;2023-12-29T02:02:46;11.10;99.90
56240;DHT22;42154;51.992;5.896;2023-12-29T02:05:14;11.10;99.90
56240;DHT22;42154;51.992;5.896;2023-12-29T02:07:41;11.10;99.90
56240;DHT22;42154;51.992;5.896;2023-12-29T02:10:07;11.10;99.90
56240;DHT22;42154;51.992;5.896;2023-12-29T02:12:35;11.10;99.90
56240;DHT22;42154;51.992;5.896;2023-12-29T02:15:05;11.10;99.90
56240;DHT22;42154;51.992;5.896;2023-12-29T02:17:38;11.10;99.90
56240;DHT22;42154;51.992;5.896;2023-12-29T02:20:05;11.10;99.90
56240;DHT22;42154;51.992;5.896;2023-12-29T02:22:32;11.10;99.90
56240;DHT22;42154;51.992;5.896;2023-12-29T02:24:58;11.10;99.90
56240;DHT22;42154;51.992;5.896;2023-12-29T02:32:49;11.00;99.90
56240;DHT22;42154;51.992;5.896;2023-12-29T02:35:24;11.00;99.90
56240;DHT22;42154;51.992;5.896;2023-12-29T02:37:50;11.00;99.90
56240;DHT22;42154;51.992;5.896;2023-12-29T02:40:16;10.90;99.90
56240;DHT22;42154;51.992;5.896;2023-12-29T02:42:46;10.90;99.90
56240;DHT22;42154;51.992;5.896;2023-12-29T02:45:14;10.90;99.90
56240;DHT22;42154;51.992;5.896;2023-12-29T02:47:40;10.90;99.90
56240;DHT22;42154;51.992;5.896;2023-12-29T02:50:06;10.90;99.90
56240;DHT22;42154;51.992;5.896;2023-12-29T02:52:31;10.90;99.90
56240;DHT22;42154;51.992;5.896;2023-12-29T02:54:57;10.90;99.90
56240;DHT22;42154;51.992;5.896;2023-12-29T02:57:23;10.90;99.90
56240;DHT22;42154;51.992;5.896;2023-12-29T02:59:49;10.90;99.90
56240;DHT22;42154;51.992;5.896;2023-12-29T03:02:14;10.90;99.90
56240;DHT22;42154;51.992;5.896;2023-12-29T03:04:40;10.90;99.90
56240;DHT22;42154;51.992;5.896;2023-12-29T03:07:06;10.90;99.90
56240;DHT22;42154;51.992;5.896;2023-12-29T03:09:32;10.90;99.90
56240;DHT22;42154;51.992;5.896;2023-12-29T03:11:57;10.90;99.90
56240;DHT22;42154;51.992;5.896;2023-12-29T03:14:23;10.80;99.90
56240;DHT22;42154;51.992;5.896;2023-12-29T03:16:49;10.90;99.90
56240;DHT22;42154;51.992;5.896;2023-12-29T03:19:15;10.90;99.90
56240;DHT22;42154;51.992;5.896;2023-12-29T03:21:41;10.90;99.90
56240;DHT22;42154;51.992;5.896;2023-12-29T03:24:09;10.90;99.90
56240;DHT22;42154;51.992;5.896;2023-12-29T03:26:35;10.90;99.90
56240;DHT22;42154;51.992;5.896;2023-12-29T03:29:00;10.90;99.90
56240;DHT22;42154;51.992;5.896;2023-12-29T03:31:26;10.80;99.90
56240;DHT22;42154;51.992;5.896;2023-12-29T03:33:52;10.80;99.90
56240;DHT22;42154;51.992;5.896;2023-12-29T03:36:18;10.90;99.90
56240;DHT22;42154;51.992;5.896;2023-12-29T03:38:44;10.90;99.90
56240;DHT22;42154;51.992;5.896;2023-12-29T03:41:09;10.90;99.90
56240;DHT22;42154;51.992;5.896;2023-12-29T03:43:35;10.90;99.90
56240;DHT22;42154;51.992;5.896;2023-12-29T03:46:01;10.90;99.90
56240;DHT22;42154;51.992;5.896;2023-12-29T03:48:27;10.90;99.90
56240;DHT22;42154;51.992;5.896;2023-12-29T03:50:52;10.90;99.90
56240;DHT22;42154;51.992;5.896;2023-12-29T03:53:18;10.90;99.90
56240;DHT22;42154;51.992;5.896;2023-12-29T03:55:44;10.90;99.90
56240;DHT22;42154;51.992;5.896;2023-12-29T03:58:10;11.00;99.90
56240;DHT22;42154;51.992;5.896;2023-12-29T04:00:36;11.00;99.90
56240;DHT22;42154;51.992;5.896;2023-12-29T04:03:02;10.90;99.90
56240;DHT22;42154;51.992;5.896;2023-12-29T04:05:28;10.90;99.90
56240;DHT22;42154;51.992;5.896;2023-12-29T04:07:53;11.00;99.90
56240;DHT22;42154;51.992;5.896;2023-12-29T04:10:19;11.00;99.90
56240;DHT22;42154;51.992;5.896;2023-12-29T04:12:45;11.00;99.90
56240;DHT22;42154;51.992;5.896;2023-12-29T04:15:11;11.00;99.90
56240;DHT22;42154;51.992;5.896;2023-12-29T04:17:37;11.00;99.90
56240;DHT22;42154;51.992;5.896;2023-12-29T04:20:03;11.00;99.90
56240;DHT22;42154;51.992;5.896;2023-12-29T04:22:29;11.00;99.90
56240;DHT22;42154;51.992;5.896;2023-12-29T04:24:55;11.10;99.90
56240;DHT22;42154;51.992;5.896;2023-12-29T04:27:21;11.00;99.90
56240;DHT22;42154;51.992;5.896;2023-12-29T04:29:46;11.10;99.90
56240;DHT22;42154;51.992;5.896;2023-12-29T04:32:12;11.10;99.90
56240;DHT22;42154;51.992;5.896;2023-12-29T04:34:38;11.10;99.90
56240;DHT22;42154;51.992;5.896;2023-12-29T04:37:04;11.10;99.90
56240;DHT22;42154;51.992;5.896;2023-12-29T04:39:30;11.10;99.90
56240;DHT22;42154;51.992;5.896;2023-12-29T04:41:56;11.10;99.90
56240;DHT22;42154;51.992;5.896;2023-12-29T04:44:22;11.10;99.90
56240;DHT22;42154;51.992;5.896;2023-12-29T04:46:48;11.10;99.90
56240;DHT22;42154;51.992;5.896;2023-12-29T04:49:14;11.10;99.90
56240;DHT22;42154;51.992;5.896;2023-12-29T04:51:40;11.10;99.90
56240;DHT22;42154;51.992;5.896;2023-12-29T04:54:05;11.00;99.90
56240;DHT22;42154;51.992;5.896;2023-12-29T04:56:31;11.10;99.90
56240;DHT22;42154;51.992;5.896;2023-12-29T04:58:57;11.10;99.90
56240;DHT22;42154;51.992;5.896;2023-12-29T05:01:23;11.10;99.90
56240;DHT22;42154;51.992;5.896;2023-12-29T05:03:48;11.10;99.90
56240;DHT22;42154;51.992;5.896;2023-12-29T05:06:14;11.10;99.90
56240;DHT22;42154;51.992;5.896;2023-12-29T05:08:40;11.10;99.90
56240;DHT22;42154;51.992;5.896;2023-12-29T05:11:06;11.10;99.90
56240;DHT22;42154;51.992;5.896;2023-12-29T05:13:31;11.10;99.90
56240;DHT22;42154;51.992;5.896;2023-12-29T05:15:57;11.10;99.90
56240;DHT22;42154;51.992;5.896;2023-12-29T05:18:23;11.20;99.90
56240;DHT22;42154;51.992;5.896;2023-12-29T05:20:48;11.10;99.90
56240;DHT22;42154;51.992;5.896;2023-12-29T05:23:14;11.10;99.90
56240;DHT22;42154;51.992;5.896;2023-12-29T05:25:40;11.10;99.90
56240;DHT22;42154;51.992;5.896;2023-12-29T05:28:06;11.10;99.90
56240;DHT22;42154;51.992;5.896;2023-12-29T05:30:31;11.10;99.90
56240;DHT22;42154;51.992;5.896;2023-12-29T05:32:57;11.10;99.90
56240;DHT22;42154;51.992;5.896;2023-12-29T05:35:23;11.00;99.90
56240;DHT22;42154;51.992;5.896;2023-12-29T05:37:49;11.00;99.90
56240;DHT22;42154;51.992;5.896;2023-12-29T05:40:15;11.00;99.90
56240;DHT22;42154;51.992;5.896;2023-12-29T05:42:41;11.00;99.90
56240;DHT22;42154;51.992;5.896;2023-12-29T05:45:07;11.00;99.90
56240;DHT22;42154;51.992;5.896;2023-12-29T05:47:33;11.00;99.90
56240;DHT22;42154;51.992;5.896;2023-12-29T05:49:59;11.00;99.90
56240;DHT22;42154;51.992;5.896;2023-12-29T05:52:24;11.00;99.90
56240;DHT22;42154;51.992;5.896;2023-12-29T05:54:50;11.00;99.90
56240;DHT22;42154;51.992;5.896;2023-12-29T05:57:16;11.00;99.90
56240;DHT22;42154;51.992;5.896;2023-12-29T05:59:42;11.00;99.90
56240;DHT22;42154;51.992;5.896;2023-12-29T06:02:07;10.90;99.90
56240;DHT22;42154;51.992;5.896;2023-12-29T06:04:33;10.90;99.90
56240;DHT22;42154;51.992;5.896;2023-12-29T06:06:59;10.90;99.90
56240;DHT22;42154;51.992;5.896;2023-12-29T06:09:25;10.90;99.90
56240;DHT22;42154;51.992;5.896;2023-12-29T06:11:51;10.90;99.90
56240;DHT22;42154;51.992;5.896;2023-12-29T06:14:17;10.90;99.90
56240;DHT22;42154;51.992;5.896;2023-12-29T06:16:43;10.90;99.90
56240;DHT22;42154;51.992;5.896;2023-12-29T06:19:09;10.90;99.90
56240;DHT22;42154;51.992;5.896;2023-12-29T06:21:41;10.90;99.90
56240;DHT22;42154;51.992;5.896;2023-12-29T06:24:07;10.90;99.90
56240;DHT22;42154;51.992;5.896;2023-12-29T06:26:33;10.80;99.90
56240;DHT22;42154;51.992;5.896;2023-12-29T06:28:59;10.80;99.90
56240;DHT22;42154;51.992;5.896;2023-12-29T06:31:25;10.80;99.90
56240;DHT22;42154;51.992;5.896;2023-12-29T06:33:50;10.80;99.90
56240;DHT22;42154;51.992;5.896;2023-12-29T06:36:16;10.80;99.90
56240;DHT22;42154;51.992;5.896;2023-12-29T06:38:42;10.80;99.90
56240;DHT22;42154;51.992;5.896;2023-12-29T06:41:11;10.80;99.90
56240;DHT22;42154;51.992;5.896;2023-12-29T06:43:38;10.80;99.90
56240;DHT22;42154;51.992;5.896;2023-12-29T06:46:04;10.80;99.90
56240;DHT22;42154;51.992;5.896;2023-12-29T06:48:29;10.80;99.90
56240;DHT22;42154;51.992;5.896;2023-12-29T06:50:55;10.80;99.90
56240;DHT22;42154;51.992;5.896;2023-12-29T06:53:21;10.80;99.90
56240;DHT22;42154;51.992;5.896;2023-12-29T06:55:47;10.80;99.90
56240;DHT22;42154;51.992;5.896;2023-12-29T06:58:12;10.80;99.90
56240;DHT22;42154;51.992;5.896;2023-12-29T07:00:38;10.80;99.90
56240;DHT22;42154;51.992;5.896;2023-12-29T07:03:04;10.80;99.90
56240;DHT22;42154;51.992;5.896;2023-12-29T07:05:30;10.90;99.90
56240;DHT22;42154;51.992;5.896;2023-12-29T07:07:55;10.90;99.90
56240;DHT22;42154;51.992;5.896;2023-12-29T07:10:21;10.90;99.90
56240;DHT22;42154;51.992;5.896;2023-12-29T07:12:47;10.90;99.90
56240;DHT22;42154;51.992;5.896;2023-12-29T07:15:13;10.90;99.90
56240;DHT22;42154;51.992;5.896;2023-12-29T07:17:39;10.80;99.90
56240;DHT22;42154;51.992;5.896;2023-12-29T07:20:06;10.80;99.90
56240;DHT22;42154;51.992;5.896;2023-12-29T07:22:32;10.70;99.90
56240;DHT22;42154;51.992;5.896;2023-12-29T07:24:58;10.70;99.90
56240;DHT22;42154;51.992;5.896;2023-12-29T07:27:24;10.60;99.90
56240;DHT22;42154;51.992;5.896;2023-12-29T07:29:49;10.60;99.90
56240;DHT22;42154;51.992;5.896;2023-12-29T07:32:15;10.50;99.90
56240;DHT22;42154;51.992;5.896;2023-12-29T07:34:41;10.50;99.90
56240;DHT22;42154;51.992;5.896;2023-12-29T07:37:07;10.40;99.90
56240;DHT22;42154;51.992;5.896;2023-12-29T07:39:36;10.50;99.90
56240;DHT22;42154;51.992;5.896;2023-12-29T07:42:02;10.40;99.90
56240;DHT22;42154;51.992;5.896;2023-12-29T07:44:31;10.40;99.90
56240;DHT22;42154;51.992;5.896;2023-12-29T07:46:59;10.40;99.90
56240;DHT22;42154;51.992;5.896;2023-12-29T07:49:25;10.40;99.90
56240;DHT22;42154;51.992;5.896;2023-12-29T07:55:46;10.40;99.90
56240;DHT22;42154;51.992;5.896;2023-12-29T07:58:13;10.30;99.90
56240;DHT22;42154;51.992;5.896;2023-12-29T08:00:39;10.30;99.90
56240;DHT22;42154;51.992;5.896;2023-12-29T08:03:05;10.30;99.90
56240;DHT22;42154;51.992;5.896;2023-12-29T08:05:31;10.30;99.90
56240;DHT22;42154;51.992;5.896;2023-12-29T08:07:56;10.30;99.90
56240;DHT22;42154;51.992;5.896;2023-12-29T08:10:22;10.30;99.90
56240;DHT22;42154;51.992;5.896;2023-12-29T08:12:48;10.30;99.90
56240;DHT22;42154;51.992;5.896;2023-12-29T08:15:14;10.30;99.90
56240;DHT22;42154;51.992;5.896;2023-12-29T08:17:39;10.30;99.90
56240;DHT22;42154;51.992;5.896;2023-12-29T08:20:06;10.30;99.90
56240;DHT22;42154;51.992;5.896;2023-12-29T08:22:32;10.30;99.90
56240;DHT22;42154;51.992;5.896;2023-12-29T08:24:58;10.30;99.90
56240;DHT22;42154;51.992;5.896;2023-12-29T08:27:25;10.30;99.90
56240;DHT22;42154;51.992;5.896;2023-12-29T08:29:53;10.30;99.90
56240;DHT22;42154;51.992;5.896;2023-12-29T08:32:19;10.30;99.90
56240;DHT22;42154;51.992;5.896;2023-12-29T08:34:47;10.30;99.90
56240;DHT22;42154;51.992;5.896;2023-12-29T08:37:13;10.30;99.90
56240;DHT22;42154;51.992;5.896;2023-12-29T08:39:46;10.40;99.90
56240;DHT22;42154;51.992;5.896;2023-12-29T08:42:12;10.40;99.90
56240;DHT22;42154;51.992;5.896;2023-12-29T08:44:38;10.40;99.90
56240;DHT22;42154;51.992;5.896;2023-12-29T08:47:04;10.40;99.90
56240;DHT22;42154;51.992;5.896;2023-12-29T08:49:37;10.40;99.90
56240;DHT22;42154;51.992;5.896;2023-12-29T08:52:03;10.40;99.90
56240;DHT22;42154;51.992;5.896;2023-12-29T08:54:29;10.40;99.90
56240;DHT22;42154;51.992;5.896;2023-12-29T08:56:55;10.50;99.90
56240;DHT22;42154;51.992;5.896;2023-12-29T08:59:21;10.50;99.90
56240;DHT22;42154;51.992;5.896;2023-12-29T09:01:46;10.50;99.90
56240;DHT22;42154;51.992;5.896;2023-12-29T09:04:12;10.50;99.90
56240;DHT22;42154;51.992;5.896;2023-12-29T09:06:38;10.60;99.90
56240;DHT22;42154;51.992;5.896;2023-12-29T09:09:04;10.60;99.90
56240;DHT22;42154;51.992;5.896;2023-12-29T09:11:30;10.60;99.90
56240;DHT22;42154;51.992;5.896;2023-12-29T09:13:55;10.60;99.90
56240;DHT22;42154;51.992;5.896;2023-12-29T09:16:21;10.60;99.90
56240;DHT22;42154;51.992;5.896;2023-12-29T09:18:47;10.60;99.90
56240;DHT22;42154;51.992;5.896;2023-12-29T09:21:13;10.60;99.90
56240;DHT22;42154;51.992;5.896;2023-12-29T09:23:38;10.60;99.90
56240;DHT22;42154;51.992;5.896;2023-12-29T09:26:05;10.70;99.90
56240;DHT22;42154;51.992;5.896;2023-12-29T09:28:33;10.60;99.90
56240;DHT22;42154;51.992;5.896;2023-12-29T09:31:00;10.70;99.90
56240;DHT22;42154;51.992;5.896;2023-12-29T09:33:26;10.80;99.90
56240;DHT22;42154;51.992;5.896;2023-12-29T09:35:52;10.80;99.90
56240;DHT22;42154;51.992;5.896;2023-12-29T09:38:18;10.80;99.90
56240;DHT22;42154;51.992;5.896;2023-12-29T09:40:45;10.80;99.90
56240;DHT22;42154;51.992;5.896;2023-12-29T09:43:12;10.80;99.90
56240;DHT22;42154;51.992;5.896;2023-12-29T09:45:38;10.80;99.90
56240;DHT22;42154;51.992;5.896;2023-12-29T09:48:11;10.90;99.90
56240;DHT22;42154;51.992;5.896;2023-12-29T09:50:39;10.80;99.90
56240;DHT22;42154;51.992;5.896;2023-12-29T09:53:06;10.80;99.90
56240;DHT22;42154;51.992;5.896;2023-12-29T09:55:33;10.90;99.90
56240;DHT22;42154;51.992;5.896;2023-12-29T09:57:59;10.90;99.90
56240;DHT22;42154;51.992;5.896;2023-12-29T10:00:27;10.90;99.90
56240;DHT22;42154;51.992;5.896;2023-12-29T10:02:53;10.90;99.90
56240;DHT22;42154;51.992;5.896;2023-12-29T10:05:19;10.90;99.90
56240;DHT22;42154;51.992;5.896;2023-12-29T10:07:45;11.00;99.90
56240;DHT22;42154;51.992;5.896;2023-12-29T10:10:16;11.00;99.90
56240;DHT22;42154;51.992;5.896;2023-12-29T10:12:47;11.00;99.90
56240;DHT22;42154;51.992;5.896;2023-12-29T10:15:46;11.10;99.90
56240;DHT22;42154;51.992;5.896;2023-12-29T10:21:08;11.10;99.90
56240;DHT22;42154;51.992;5.896;2023-12-29T10:26:15;11.10;99.90
56240;DHT22;42154;51.992;5.896;2023-12-29T10:28:41;11.20;99.90
56240;DHT22;42154;51.992;5.896;2023-12-29T10:31:10;11.10;99.90
56240;DHT22;42154;51.992;5.896;2023-12-29T10:33:39;11.10;99.90
56240;DHT22;42154;51.992;5.896;2023-12-29T10:36:05;11.20;99.90
56240;DHT22;42154;51.992;5.896;2023-12-29T10:38:33;11.20;99.90
56240;DHT22;42154;51.992;5.896;2023-12-29T10:41:16;11.20;99.90
56240;DHT22;42154;51.992;5.896;2023-12-29T10:43:43;11.30;99.90
56240;DHT22;42154;51.992;5.896;2023-12-29T10:46:11;11.30;99.90
56240;DHT22;42154;51.992;5.896;2023-12-29T10:48:37;11.30;99.90
56240;DHT22;42154;51.992;5.896;2023-12-29T10:51:04;11.30;99.90
56240;DHT22;42154;51.992;5.896;2023-12-29T10:53:30;11.30;99.90
56240;DHT22;42154;51.992;5.896;2023-12-29T10:55:56;11.40;99.90
56240;DHT22;42154;51.992;5.896;2023-12-29T10:58:27;11.40;99.90
56240;DHT22;42154;51.992;5.896;2023-12-29T11:00:59;11.40;99.90
56240;DHT22;42154;51.992;5.896;2023-12-29T11:03:27;11.50;99.90
56240;DHT22;42154;51.992;5.896;2023-12-29T11:06:02;11.60;99.90
56240;DHT22;42154;51.992;5.896;2023-12-29T11:08:28;11.60;99.90
56240;DHT22;42154;51.992;5.896;2023-12-29T11:10:54;11.60;99.90
56240;DHT22;42154;51.992;5.896;2023-12-29T11:13:21;11.60;99.90
56240;DHT22;42154;51.992;5.896;2023-12-29T11:15:48;11.60;99.90
56240;DHT22;42154;51.992;5.896;2023-12-29T11:18:15;11.60;99.90
56240;DHT22;42154;51.992;5.896;2023-12-29T11:20:45;11.60;99.90
56240;DHT22;42154;51.992;5.896;2023-12-29T11:23:11;11.50;99.90
56240;DHT22;42154;51.992;5.896;2023-12-29T11:25:40;11.50;99.90
56240;DHT22;42154;51.992;5.896;2023-12-29T11:28:09;11.60;99.90
56240;DHT22;42154;51.992;5.896;2023-12-29T11:30:36;11.60;99.90
56240;DHT22;42154;51.992;5.896;2023-12-29T11:33:10;11.60;99.90
56240;DHT22;42154;51.992;5.896;2023-12-29T11:35:51;11.70;99.90
56240;DHT22;42154;51.992;5.896;2023-12-29T11:38:29;11.70;99.90
56240;DHT22;42154;51.992;5.896;2023-12-29T11:43:59;11.80;99.90
56240;DHT22;42154;51.992;5.896;2023-12-29T11:46:43;11.80;99.90
56240;DHT22;42154;51.992;5.896;2023-12-29T11:49:10;11.80;99.90
56240;DHT22;42154;51.992;5.896;2023-12-29T11:51:43;11.80;99.90
56240;DHT22;42154;51.992;5.896;2023-12-29T11:54:10;11.80;99.90
56240;DHT22;42154;51.992;5.896;2023-12-29T11:56:40;11.80;99.90
56240;DHT22;42154;51.992;5.896;2023-12-29T11:59:19;11.80;99.90
56240;DHT22;42154;51.992;5.896;2023-12-29T12:01:55;11.80;99.90
56240;DHT22;42154;51.992;5.896;2023-12-29T12:04:37;11.80;99.90
56240;DHT22;42154;51.992;5.896;2023-12-29T12:07:08;11.90;99.90
56240;DHT22;42154;51.992;5.896;2023-12-29T12:09:35;11.90;99.90
56240;DHT22;42154;51.992;5.896;2023-12-29T12:12:05;11.80;99.90
56240;DHT22;42154;51.992;5.896;2023-12-29T12:14:48;11.90;99.90
56240;DHT22;42154;51.992;5.896;2023-12-29T12:17:33;11.90;99.90
56240;DHT22;42154;51.992;5.896;2023-12-29T12:20:07;11.90;99.90
56240;DHT22;42154;51.992;5.896;2023-12-29T12:22:37;11.80;99.90
56240;DHT22;42154;51.992;5.896;2023-12-29T12:25:04;11.80;99.90
56240;DHT22;42154;51.992;5.896;2023-12-29T12:27:31;11.80;99.90
56240;DHT22;42154;51.992;5.896;2023-12-29T12:29:58;11.90;99.90
56240;DHT22;42154;51.992;5.896;2023-12-29T12:32:29;11.80;99.90
56240;DHT22;42154;51.992;5.896;2023-12-29T12:34:56;11.90;99.90
56240;DHT22;42154;51.992;5.896;2023-12-29T12:37:26;11.80;99.90
56240;DHT22;42154;51.992;5.896;2023-12-29T12:39:52;11.90;99.90
56240;DHT22;42154;51.992;5.896;2023-12-29T12:42:19;11.80;99.90
56240;DHT22;42154;51.992;5.896;2023-12-29T12:44:56;11.90;99.90
56240;DHT22;42154;51.992;5.896;2023-12-29T12:47:34;11.90;99.90
56240;DHT22;42154;51.992;5.896;2023-12-29T12:50:01;11.90;99.90
56240;DHT22;42154;51.992;5.896;2023-12-29T12:52:35;11.90;99.90
56240;DHT22;42154;51.992;5.896;2023-12-29T12:55:02;11.90;99.90
56240;DHT22;42154;51.992;5.896;2023-12-29T12:57:28;11.90;99.90
56240;DHT22;42154;51.992;5.896;2023-12-29T12:59:56;11.80;99.90
56240;DHT22;42154;51.992;5.896;2023-12-29T13:02:22;11.80;99.90
56240;DHT22;42154;51.992;5.896;2023-12-29T13:04:49;11.80;99.90
56240;DHT22;42154;51.992;5.896;2023-12-29T13:07:17;11.80;99.90
56240;DHT22;42154;51.992;5.896;2023-12-29T13:09:45;11.70;99.90
56240;DHT22;42154;51.992;5.896;2023-12-29T13:12:14;11.70;99.90
56240;DHT22;42154;51.992;5.896;2023-12-29T13:14:42;11.80;99.90
56240;DHT22;42154;51.992;5.896;2023-12-29T13:17:08;11.80;99.90
56240;DHT22;42154;51.992;5.896;2023-12-29T13:19:37;11.80;99.90
56240;DHT22;42154;51.992;5.896;2023-12-29T13:22:08;11.80;99.90
56240;DHT22;42154;51.992;5.896;2023-12-29T13:24:35;11.80;99.90
56240;DHT22;42154;51.992;5.896;2023-12-29T13:27:07;11.80;99.90
56240;DHT22;42154;51.992;5.896;2023-12-29T13:29:36;11.80;99.90
56240;DHT22;42154;51.992;5.896;2023-12-29T13:32:07;11.80;99.90
56240;DHT22;42154;51.992;5.896;2023-12-29T13:34:36;11.80;99.90
56240;DHT22;42154;51.992;5.896;2023-12-29T13:37:36;11.70;99.90
56240;DHT22;42154;51.992;5.896;2023-12-29T13:40:07;11.60;99.90
56240;DHT22;42154;51.992;5.896;2023-12-29T13:42:36;11.60;99.90
56240;DHT22;42154;51.992;5.896;2023-12-29T13:45:04;11.60;99.90
56240;DHT22;42154;51.992;5.896;2023-12-29T13:47:31;11.70;99.90
56240;DHT22;42154;51.992;5.896;2023-12-29T13:49:58;11.70;99.90
56240;DHT22;42154;51.992;5.896;2023-12-29T13:52:24;11.70;99.90
56240;DHT22;42154;51.992;5.896;2023-12-29T13:54:50;11.70;99.90
56240;DHT22;42154;51.992;5.896;2023-12-29T13:57:15;11.70;99.90
56240;DHT22;42154;51.992;5.896;2023-12-29T13:59:41;11.70;99.90
56240;DHT22;42154;51.992;5.896;2023-12-29T14:02:39;11.70;99.90
56240;DHT22;42154;51.992;5.896;2023-12-29T14:05:27;11.70;99.90
56240;DHT22;42154;51.992;5.896;2023-12-29T14:08:26;11.70;99.90
56240;DHT22;42154;51.992;5.896;2023-12-29T14:10:53;11.70;99.90
56240;DHT22;42154;51.992;5.896;2023-12-29T14:13:22;11.60;99.90
56240;DHT22;42154;51.992;5.896;2023-12-29T14:15:47;11.70;99.90
56240;DHT22;42154;51.992;5.896;2023-12-29T14:21:00;11.70;99.90
56240;DHT22;42154;51.992;5.896;2023-12-29T14:23:26;11.70;99.90
56240;DHT22;42154;51.992;5.896;2023-12-29T14:25:52;11.70;99.90
56240;DHT22;42154;51.992;5.896;2023-12-29T14:28:21;11.70;99.90
56240;DHT22;42154;51.992;5.896;2023-12-29T14:30:47;11.70;99.90
56240;DHT22;42154;51.992;5.896;2023-12-29T14:33:13;11.70;99.90
56240;DHT22;42154;51.992;5.896;2023-12-29T14:35:39;11.70;99.90
56240;DHT22;42154;51.992;5.896;2023-12-29T14:38:06;11.70;99.90
56240;DHT22;42154;51.992;5.896;2023-12-29T14:40:31;11.70;99.90
56240;DHT22;42154;51.992;5.896;2023-12-29T14:43:00;11.70;99.90
56240;DHT22;42154;51.992;5.896;2023-12-29T14:45:27;11.70;99.90
56240;DHT22;42154;51.992;5.896;2023-12-29T14:47:57;11.70;99.90
56240;DHT22;42154;51.992;5.896;2023-12-29T14:50:23;11.60;99.90
56240;DHT22;42154;51.992;5.896;2023-12-29T14:52:49;11.60;99.90
56240;DHT22;42154;51.992;5.896;2023-12-29T14:55:15;11.50;99.90
56240;DHT22;42154;51.992;5.896;2023-12-29T14:57:40;11.50;99.90
56240;DHT22;42154;51.992;5.896;2023-12-29T15:00:07;11.40;99.90
56240;DHT22;42154;51.992;5.896;2023-12-29T15:02:34;11.30;99.90
56240;DHT22;42154;51.992;5.896;2023-12-29T15:05:00;11.20;99.90
56240;DHT22;42154;51.992;5.896;2023-12-29T15:07:26;11.20;99.90
56240;DHT22;42154;51.992;5.896;2023-12-29T15:09:56;11.20;99.90
56240;DHT22;42154;51.992;5.896;2023-12-29T15:12:22;11.10;99.90
56240;DHT22;42154;51.992;5.896;2023-12-29T15:14:48;11.10;99.90
56240;DHT22;42154;51.992;5.896;2023-12-29T15:17:14;11.10;99.90
56240;DHT22;42154;51.992;5.896;2023-12-29T15:19:40;11.10;99.90
56240;DHT22;42154;51.992;5.896;2023-12-29T15:22:06;11.00;99.90
56240;DHT22;42154;51.992;5.896;2023-12-29T15:24:32;11.00;99.90
56240;DHT22;42154;51.992;5.896;2023-12-29T15:26:58;11.00;99.90
56240;DHT22;42154;51.992;5.896;2023-12-29T15:29:23;11.00;99.90
56240;DHT22;42154;51.992;5.896;2023-12-29T15:31:49;10.90;99.90
56240;DHT22;42154;51.992;5.896;2023-12-29T15:34:15;10.90;99.90
56240;DHT22;42154;51.992;5.896;2023-12-29T15:36:41;10.80;99.90
56240;DHT22;42154;51.992;5.896;2023-12-29T15:39:07;10.70;99.90
56240;DHT22;42154;51.992;5.896;2023-12-29T15:41:34;10.70;99.90
56240;DHT22;42154;51.992;5.896;2023-12-29T15:44:00;10.70;99.90
56240;DHT22;42154;51.992;5.896;2023-12-29T15:46:29;10.70;99.90
56240;DHT22;42154;51.992;5.896;2023-12-29T15:48:54;10.70;99.90
56240;DHT22;42154;51.992;5.896;2023-12-29T15:51:22;10.70;99.90